Time;durP1;ratioP1;P1;durP2;ratioP2;P2;SDS_P1;SDS_P2;PMS_P1;PMS_P2;Temp;Humidity;BMP_temperature;BMP_pressure;BME280_temperature;BME280_humidity;BME280_pressure;Samples;Min_cycle;Max_cycle;Signal;HPM_P1;HPM_P2
2021/05/30 07:41:05;;;;;;;;;;;;;;;15.22;74.08;102192.94;6034457;23;20102;-79
2021/05/30 07:43:30;;;;;;;8.25;4.05;;;;;;;15.23;73.39;102178.38;6003437;23;19914;-78
2021/05/30 07:45:56;;;;;;;6.28;4.63;;;;;;;15.30;72.72;102185.66;5981329;23;20003;-79
2021/05/30 07:48:21;;;;;;;8.70;4.38;;;;;;;15.39;72.10;102189.19;5956745;23;20022;-79
2021/05/30 07:50:48;;;;;;;8.93;4.57;;;;;;;15.43;72.11;102177.00;5957701;23;20031;-79
2021/05/30 07:53:13;;;;;;;6.53;4.63;;;;;;;15.54;72.07;102173.91;5981141;23;20007;-80
2021/05/30 07:55:40;;;;;;;8.95;4.50;;;;;;;15.57;71.62;102178.97;5980034;23;20011;-76
2021/05/30 07:58:06;;;;;;;8.68;4.50;;;;;;;15.59;71.16;102176.09;5979121;23;20382;-75
2021/05/30 08:00:31;;;;;;;5.55;4.25;;;;;;;15.61;71.30;102180.31;5981794;23;20457;-77
2021/05/30 08:02:57;;;;;;;5.65;4.55;;;;;;;15.72;70.48;102179.13;5957039;23;20004;-76
2021/05/30 08:05:22;;;;;;;6.10;5.10;;;;;;;15.80;69.57;102173.66;6004237;23;20011;-78
2021/05/30 08:07:49;;;;;;;7.40;4.95;;;;;;;15.92;68.74;102178.69;5979198;23;20023;-79
2021/05/30 08:10:15;;;;;;;5.68;4.60;;;;;;;16.05;68.16;102174.38;5979901;23;20008;-78
2021/05/30 08:12:41;;;;;;;7.45;4.97;;;;;;;16.03;66.96;102162.03;5979271;23;20486;-77
2021/05/30 08:15:08;;;;;;;7.65;4.72;;;;;;;16.15;66.92;102163.31;5980959;23;20015;-75
2021/05/30 08:17:35;;;;;;;9.45;5.05;;;;;;;16.33;66.18;102171.19;5982640;23;20008;-81
2021/05/30 08:20:00;;;;;;;7.65;5.10;;;;;;;16.35;65.19;102154.72;5986858;23;20510;-83
2021/05/30 08:27:46;;;;;;;8.18;5.40;;;;;;;16.56;63.97;102141.31;6016742;23;20030;-80
2021/05/30 08:30:14;;;;;;;7.68;4.90;;;;;;;16.62;63.84;102129.75;5991220;23;20008;-80
2021/05/30 08:39:06;;;;;;;8.35;5.10;;;;;;;17.07;61.72;102143.47;5953172;24;20039;-79
2021/05/30 08:41:32;;;;;;;8.35;5.13;;;;;;;17.17;61.56;102151.34;5958585;23;20012;-78
2021/05/30 08:43:57;;;;;;;10.15;6.90;;;;;;;17.40;61.50;102170.31;5964068;23;20067;-79
2021/05/30 08:46:23;;;;;;;9.55;5.68;;;;;;;17.57;61.25;102172.66;5985797;23;20003;-78
2021/05/30 08:48:48;;;;;;;10.80;6.85;;;;;;;17.67;60.90;102168.81;5985335;23;20014;-77
2021/05/30 08:51:15;;;;;;;7.03;4.97;;;;;;;17.66;59.81;102162.53;6010184;23;20018;-78
2021/05/30 08:53:41;;;;;;;7.00;5.03;;;;;;;17.78;58.97;102165.59;5982933;23;20012;-77
2021/05/30 08:56:08;;;;;;;6.32;4.40;;;;;;;17.85;58.91;102155.69;5981837;23;20004;-78
2021/05/30 08:58:37;;;;;;;6.10;5.32;;;;;;;17.93;58.89;102161.03;6008183;23;20340;-77
2021/05/30 09:01:11;;;;;;;6.28;4.95;;;;;;;18.08;58.76;102155.56;5983665;23;20014;-78
2021/05/30 09:03:49;;;;;;;6.82;5.78;;;;;;;18.27;57.80;102164.16;5983663;23;20030;-77
2021/05/30 09:06:15;;;;;;;5.68;5.10;;;;;;;18.32;57.09;102158.97;5984304;23;20110;-78
2021/05/30 09:08:42;;;;;;;6.90;5.03;;;;;;;18.45;57.43;102154.50;5985828;23;20004;-77
2021/05/30 09:11:08;;;;;;;5.60;4.78;;;;;;;18.55;56.89;102150.59;5962292;23;20411;-78
2021/05/30 09:13:39;;;;;;;7.10;4.93;;;;;;;18.64;56.43;102149.44;5987579;23;20439;-78
2021/05/30 09:18:33;;;;;;;7.53;4.40;;;;;;;18.77;56.37;102149.59;6009073;23;20086;-78
2021/05/30 09:21:05;;;;;;;7.22;5.05;;;;;;;18.79;56.08;102144.78;5986139;23;20060;-78
2021/05/30 09:23:39;;;;;;;7.75;4.90;;;;;;;18.98;57.61;102139.69;5987893;23;20042;-78
2021/05/30 09:26:19;;;;;;;8.40;5.43;;;;;;;19.13;56.44;102136.84;5985849;23;20004;-78
2021/05/30 09:29:06;;;;;;;9.57;5.32;;;;;;;19.28;55.97;102138.44;5985409;23;20079;-78
2021/05/30 09:31:53;;;;;;;8.52;5.97;;;;;;;19.18;55.28;102135.22;5985742;23;20007;-78
2021/05/30 09:34:27;;;;;;;7.55;5.15;;;;;;;19.27;56.02;102144.94;5985469;23;20019;-78
2021/05/30 09:36:53;;;;;;;8.32;4.68;;;;;;;19.29;55.89;102142.84;5985285;23;20012;-78
2021/05/30 09:39:38;;;;;;;7.03;5.65;;;;;;;19.42;55.94;102138.50;6008207;23;20012;-78
2021/05/30 09:42:25;;;;;;;6.63;5.20;;;;;;;19.38;56.39;102148.16;6010616;23;19999;-79
2021/05/30 09:44:57;;;;;;;5.72;4.53;;;;;;;19.50;55.39;102136.47;5984982;23;20003;-77
2021/05/30 09:47:32;;;;;;;6.90;5.15;;;;;;;19.62;54.12;102139.47;5986651;23;20426;-78
2021/05/30 09:49:58;;;;;;;5.65;4.68;;;;;;;19.74;54.15;102139.75;5984584;23;20030;-78
2021/05/30 09:52:42;;;;;;;7.35;5.22;;;;;;;19.91;54.19;102129.34;5984779;23;20430;-78
2021/05/30 09:55:12;;;;;;;7.45;5.70;;;;;;;20.10;53.64;102127.72;6009641;23;20702;-78
2021/05/30 09:57:38;;;;;;;10.00;5.63;;;;;;;20.17;52.46;102144.97;5983850;23;20053;-78
2021/05/30 10:00:04;;;;;;;6.40;5.10;;;;;;;20.24;52.72;102134.03;6011089;23;20393;-78
2021/05/30 10:02:31;;;;;;;9.57;6.10;;;;;;;20.30;52.43;102134.06;6006348;23;20008;-78
2021/05/30 10:04:57;;;;;;;7.25;5.82;;;;;;;20.31;51.25;102134.91;5984678;23;20099;-78
2021/05/30 10:07:22;;;;;;;8.75;6.55;;;;;;;20.31;50.82;102126.72;6013031;23;20091;-78
2021/05/30 10:09:48;;;;;;;7.47;6.10;;;;;;;20.43;51.30;102138.72;5963961;23;20498;-78
2021/05/30 10:12:13;;;;;;;7.60;6.28;;;;;;;20.48;52.06;102129.88;6012202;23;20028;-75
2021/05/30 10:14:39;;;;;;;8.55;6.65;;;;;;;20.53;51.25;102119.16;5980316;23;20039;-75
2021/05/30 10:17:04;;;;;;;7.90;6.20;;;;;;;20.49;51.36;102137.88;6004747;23;20010;-75
2021/05/30 10:19:49;;;;;;;6.18;5.55;;;;;;;20.46;52.48;102129.28;5979777;23;20446;-75
2021/05/30 10:22:17;;;;;;;7.40;6.63;;;;;;;20.48;51.98;102128.00;5980715;23;20011;-75
2021/05/30 10:24:44;;;;;;;6.82;5.72;;;;;;;20.56;52.05;102122.38;5980009;23;20014;-75
2021/05/30 10:27:23;;;;;;;6.75;6.03;;;;;;;20.83;52.55;102128.69;5980353;23;20011;-75
2021/05/30 10:30:07;;;;;;;7.63;6.18;;;;;;;21.03;51.56;102134.13;5978028;23;20372;-75
2021/05/30 10:32:34;;;;;;;6.30;5.70;;;;;;;21.06;51.93;102117.31;6002669;23;20004;-75
2021/05/30 10:35:12;;;;;;;8.57;6.85;;;;;;;21.13;51.82;102111.81;6002928;23;20014;-74
2021/05/30 10:37:43;;;;;;;7.40;5.57;;;;;;;21.28;52.15;102114.31;6001206;23;20011;-75
2021/05/30 10:40:20;;;;;;;9.25;6.50;;;;;;;21.37;50.86;102115.75;5978009;23;20094;-75
2021/05/30 10:43:11;;;;;;;7.97;6.80;;;;;;;21.37;50.20;102113.03;6002619;23;20489;-75
2021/05/30 10:45:58;;;;;;;8.20;6.50;;;;;;;21.38;50.44;102114.75;5978325;23;20004;-75
2021/05/30 10:48:25;;;;;;;7.93;6.03;;;;;;;21.25;51.59;102109.28;5977076;23;20007;-75
2021/05/30 10:53:51;;;;;;;8.25;5.70;;;;;;;21.44;50.69;102099.38;5980454;23;20015;-75
2021/05/30 10:56:23;;;;;;;7.93;6.55;;;;;;;21.39;49.78;102096.44;5980159;23;20504;-75
2021/05/30 10:59:15;;;;;;;7.32;5.60;;;;;;;21.47;49.73;102096.19;6004472;23;20010;-75
2021/05/30 11:01:48;;;;;;;7.85;6.78;;;;;;;21.39;50.14;102099.16;5975908;23;20015;-74
2021/05/30 11:04:30;;;;;;;;;;;;;;;21.39;50.09;102094.53;5981972;23;20004;-74
2021/05/30 11:06:58;;;;;;;9.00;6.55;;;;;;;21.66;50.09;102087.06;6004153;23;19906;-75
2021/05/30 11:09:49;;;;;;;6.93;5.57;;;;;;;21.98;49.78;102084.38;6003612;23;20034;-75
2021/05/30 11:12:22;;;;;;;8.35;5.72;;;;;;;22.11;48.83;102089.75;6005556;23;20031;-75
2021/05/30 11:15:10;;;;;;;7.47;5.55;;;;;;;22.22;48.03;102088.25;5981258;23;20015;-75
2021/05/30 11:17:36;;;;;;;6.18;5.53;;;;;;;22.17;46.47;102077.06;6003886;23;20004;-74
2021/05/30 11:20:03;;;;;;;7.65;6.22;;;;;;;22.25;46.99;102076.84;5980662;23;20068;-74
2021/05/30 11:22:42;;;;;;;8.52;6.05;;;;;;;22.07;47.41;102065.75;5980492;23;20007;-75
2021/05/30 11:25:08;;;;;;;6.20;5.60;;;;;;;21.85;48.63;102070.75;6005396;23;20007;-74
2021/05/30 11:27:58;;;;;;;7.13;5.60;;;;;;;21.66;49.35;102075.28;5979643;23;20004;-75
2021/05/30 11:30:43;;;;;;;8.90;5.63;;;;;;;22.13;48.59;102078.59;5981017;23;20008;-74
2021/05/30 11:33:12;;;;;;;7.45;5.53;;;;;;;21.70;48.82;102068.31;5980394;23;20070;-74
2021/05/30 11:35:38;;;;;;;6.30;5.70;;;;;;;21.78;48.46;102072.66;5980561;23;20004;-74
2021/05/30 11:38:04;;;;;;;6.65;5.63;;;;;;;21.40;48.68;102060.63;5979448;23;20066;-74
2021/05/30 11:40:34;;;;;;;7.15;5.55;;;;;;;21.46;49.33;102064.41;5980354;23;20426;-74
2021/05/30 11:43:12;;;;;;;9.55;6.15;;;;;;;21.49;49.53;102050.31;5981054;23;20438;-74
2021/05/30 11:45:41;;;;;;;6.95;6.18;;;;;;;21.19;49.08;102061.72;6005618;23;20012;-74
2021/05/30 11:48:18;;;;;;;8.23;5.97;;;;;;;20.79;49.39;102053.59;5979956;23;20019;-75
2021/05/30 11:50:52;;;;;;;6.72;6.13;;;;;;;20.74;50.12;102041.63;6005363;23;20037;-74
2021/05/30 11:53:29;;;;;;;7.05;5.40;;;;;;;20.85;49.78;102046.44;6005180;23;20004;-74
2021/05/30 11:55:58;;;;;;;8.82;5.25;;;;;;;20.76;49.11;102039.53;6005132;23;20031;-74
2021/05/30 11:58:24;;;;;;;5.43;4.88;;;;;;;20.76;49.97;102045.00;6004582;23;20013;-75
2021/05/30 12:00:57;;;;;;;7.75;5.40;;;;;;;21.00;49.39;102041.56;5979867;23;20008;-75
2021/05/30 12:03:23;;;;;;;8.40;4.82;;;;;;;21.58;48.61;102040.78;5981079;23;20039;-74
2021/05/30 12:05:58;;;;;;;7.70;5.70;;;;;;;22.00;48.62;102038.44;5982552;23;20008;-74
2021/05/30 12:08:24;;;;;;;5.15;4.65;;;;;;;22.45;46.85;102027.38;6006545;23;20082;-74
2021/05/30 12:10:57;;;;;;;6.80;4.90;;;;;;;22.17;46.26;102030.50;5982217;23;20028;-75
2021/05/30 12:13:32;;;;;;;5.15;4.28;;;;;;;22.19;45.95;102036.66;6006941;23;20007;-74
2021/05/30 12:15:59;;;;;;;5.82;5.22;;;;;;;22.64;44.93;102031.00;6007152;23;20007;-74
2021/05/30 12:18:26;;;;;;;5.55;4.93;;;;;;;22.83;44.54;102027.19;5981559;23;20090;-74
2021/05/30 12:20:57;;;;;;;9.70;5.05;;;;;;;23.12;45.05;102021.25;6007171;23;20082;-74
2021/05/30 12:23:23;;;;;;;5.80;5.15;;;;;;;23.36;44.75;102009.31;5981775;23;20334;-75
2021/05/30 12:25:52;;;;;;;5.70;4.63;;;;;;;23.17;44.49;102008.50;6007452;23;20011;-74
2021/05/30 12:28:18;;;;;;;5.13;4.63;;;;;;;22.55;44.82;102010.44;6006606;23;20342;-74
2021/05/30 12:30:49;;;;;;;6.22;4.88;;;;;;;22.12;45.92;102011.16;5982091;23;20473;-75
2021/05/30 12:33:14;;;;;;;5.82;5.15;;;;;;;21.88;45.69;102008.16;5982099;23;20449;-74
2021/05/30 12:35:54;;;;;;;7.57;4.55;;;;;;;21.98;46.16;101998.63;5982159;23;20011;-74
2021/05/30 12:38:24;;;;;;;6.35;4.72;;;;;;;21.88;46.69;101999.94;5981664;23;20015;-75
2021/05/30 12:40:49;;;;;;;8.25;5.22;;;;;;;22.10;46.97;101991.38;5982201;23;20032;-75
2021/05/30 12:43:15;;;;;;;6.35;4.60;;;;;;;22.76;45.79;101981.75;5981880;23;20873;-76
2021/05/30 12:45:55;;;;;;;5.13;4.63;;;;;;;22.50;46.22;101980.13;6006757;23;20132;-75
2021/05/30 12:48:21;;;;;;;5.80;4.88;;;;;;;22.15;46.34;101978.69;6006405;23;20442;-74
2021/05/30 12:50:46;;;;;;;7.72;5.43;;;;;;;21.94;46.92;101981.81;5981184;23;20012;-75
2021/05/30 12:53:12;;;;;;;6.47;5.30;;;;;;;21.92;47.74;101983.94;6006462;23;20094;-74
2021/05/30 12:55:39;;;;;;;6.22;4.85;;;;;;;22.21;46.42;101971.50;6006714;23;20756;-74
2021/05/30 12:58:17;;;;;;;5.15;4.07;;;;;;;22.71;46.54;101976.94;6006146;23;20593;-75
2021/05/30 13:00:42;;;;;;;5.93;4.60;;;;;;;22.63;46.41;101973.66;5981644;23;20011;-75
2021/05/30 13:03:10;;;;;;;5.05;4.45;;;;;;;22.40;45.96;101969.66;5980402;23;20079;-75
2021/05/30 13:05:44;;;;;;;5.80;4.40;;;;;;;22.24;46.06;101972.97;6006531;23;20035;-74
2021/05/30 13:08:18;;;;;;;6.47;4.10;;;;;;;22.49;45.49;101962.84;5980398;23;20010;-75
2021/05/30 13:11:00;;;;;;;5.72;4.20;;;;;;;22.64;45.39;101956.97;5981050;23;20042;-74
2021/05/30 13:13:39;;;;;;;6.28;4.03;;;;;;;22.67;45.75;101955.69;5981520;23;20008;-75
2021/05/30 13:16:05;;;;;;;5.82;4.47;;;;;;;22.82;43.86;101946.00;5981248;23;20086;-74
2021/05/30 13:18:47;;;;;;;7.50;4.57;;;;;;;23.23;42.58;101951.88;5980807;23;20023;-73
2021/05/30 13:21:26;;;;;;;5.43;3.90;;;;;;;22.94;42.88;101948.84;6006346;23;20011;-74
2021/05/30 13:24:07;;;;;;;5.45;4.38;;;;;;;22.66;43.88;101951.28;6006288;23;20800;-74
2021/05/30 13:26:54;;;;;;;6.03;4.83;;;;;;;22.79;44.41;101948.38;5980667;23;20008;-75
2021/05/30 13:29:24;;;;;;;6.00;4.70;;;;;;;23.09;44.14;101929.25;5980221;23;20235;-75
2021/05/30 13:31:50;;;;;;;6.30;4.93;;;;;;;23.50;43.73;101930.41;5981253;23;20467;-75
2021/05/30 13:34:16;;;;;;;6.05;4.65;;;;;;;23.35;43.40;101939.03;5981242;23;20083;-75
2021/05/30 13:36:41;;;;;;;8.88;4.75;;;;;;;23.14;43.51;101929.41;6006083;23;20016;-74
2021/05/30 13:39:08;;;;;;;6.95;4.55;;;;;;;22.81;43.98;101929.78;5957052;23;20382;-75
2021/05/30 13:41:33;;;;;;;5.30;4.28;;;;;;;22.81;44.79;101927.91;5981049;23;20008;-75
2021/05/30 13:44:00;;;;;;;4.63;3.85;;;;;;;22.64;45.04;101925.97;5981062;23;20345;-76
2021/05/30 13:46:27;;;;;;;6.55;4.68;;;;;;;22.39;45.71;101919.50;5981898;23;20026;-79
2021/05/30 13:48:53;;;;;;;5.88;4.47;;;;;;;22.30;46.24;101917.25;5988308;23;20007;-75
2021/05/30 13:51:20;;;;;;;4.90;4.18;;;;;;;22.19;46.93;101923.50;5980920;23;20042;-75
2021/05/30 13:53:48;;;;;;;5.03;4.43;;;;;;;22.04;47.16;101921.03;5981163;23;20004;-75
2021/05/30 13:56:14;;;;;;;5.85;4.88;;;;;;;21.86;46.79;101925.41;5957768;23;20431;-78
2021/05/30 13:58:40;;;;;;;5.00;4.50;;;;;;;21.54;46.98;101924.59;5981080;23;20474;-78
2021/05/30 14:01:06;;;;;;;6.00;4.57;;;;;;;21.35;47.99;101926.34;5981523;23;20014;-76
2021/05/30 14:03:32;;;;;;;6.97;5.00;;;;;;;21.15;48.41;101925.63;5981142;23;20135;-77
2021/05/30 14:05:58;;;;;;;6.63;4.97;;;;;;;21.04;49.17;101919.78;6006386;23;20003;-76
2021/05/30 14:08:23;;;;;;;5.18;4.50;;;;;;;20.98;49.61;101923.38;5981118;23;20003;-77
2021/05/30 14:10:49;;;;;;;5.35;4.85;;;;;;;20.98;49.98;101920.63;6006133;23;20339;-78
2021/05/30 14:13:14;;;;;;;5.75;4.35;;;;;;;20.99;50.06;101910.56;5981733;23;20031;-77
2021/05/30 14:15:40;;;;;;;6.20;4.43;;;;;;;21.14;49.27;101918.47;6006228;23;20003;-76
2021/05/30 14:18:06;;;;;;;7.25;4.65;;;;;;;21.20;48.79;101901.22;6005742;23;20011;-77
2021/05/30 14:20:33;;;;;;;6.22;4.78;;;;;;;21.44;48.32;101907.81;5981352;23;20056;-76
2021/05/30 14:22:58;;;;;;;5.32;4.50;;;;;;;21.59;48.86;101908.34;5981606;23;20004;-77
2021/05/30 14:25:23;;;;;;;5.32;4.25;;;;;;;21.61;48.16;101899.91;6006136;23;20094;-78
2021/05/30 14:27:50;;;;;;;5.18;4.38;;;;;;;21.65;48.65;101901.16;6004960;23;20501;-77
2021/05/30 14:30:16;;;;;;;5.88;3.92;;;;;;;21.59;46.76;101907.50;5981489;23;20075;-76
2021/05/30 14:32:41;;;;;;;5.50;3.45;;;;;;;21.49;46.93;101897.91;5957908;23;20071;-77
2021/05/30 14:35:08;;;;;;;4.50;4.10;;;;;;;21.51;46.67;101893.03;6006059;23;20035;-77
2021/05/30 14:37:35;;;;;;;6.28;4.30;;;;;;;21.60;46.40;101887.31;5980637;23;20011;-78
2021/05/30 14:40:02;;;;;;;7.68;3.90;;;;;;;21.81;45.52;101888.81;5981517;23;20007;-77
2021/05/30 14:42:27;;;;;;;7.03;5.18;;;;;;;22.45;44.46;101893.09;5980853;23;20011;-77
2021/05/30 14:44:53;;;;;;;8.85;7.70;;;;;;;22.54;43.58;101894.44;6005871;23;20072;-78
2021/05/30 14:47:18;;;;;;;6.72;4.35;;;;;;;22.85;42.76;101881.66;5981253;23;20071;-77
2021/05/30 14:49:44;;;;;;;5.05;3.95;;;;;;;22.91;42.77;101874.41;5980503;23;20038;-77
2021/05/30 14:52:10;;;;;;;6.40;4.57;;;;;;;23.04;43.77;101877.00;5980731;23;20020;-76
2021/05/30 14:54:36;;;;;;;6.95;3.80;;;;;;;22.82;43.97;101871.97;5981479;23;20004;-77
2021/05/30 14:57:03;;;;;;;5.65;3.97;;;;;;;22.50;43.41;101867.75;5981167;23;20060;-76
2021/05/30 14:59:28;;;;;;;4.63;3.75;;;;;;;22.26;43.44;101869.47;5956879;23;20338;-78
2021/05/30 15:01:54;;;;;;;6.43;4.28;;;;;;;22.00;42.86;101865.06;5980782;23;20028;-77
2021/05/30 15:04:19;;;;;;;5.90;3.78;;;;;;;21.89;43.46;101874.84;5981126;23;20076;-76
2021/05/30 15:06:47;;;;;;;4.60;3.63;;;;;;;21.84;43.91;101867.31;6005623;23;20384;-78
2021/05/30 15:09:13;;;;;;;3.95;3.55;;;;;;;21.81;43.80;101866.94;6005065;23;20500;-77
2021/05/30 15:11:39;;;;;;;4.03;3.63;;;;;;;21.74;44.60;101864.22;5980491;23;20008;-77
2021/05/30 15:14:05;;;;;;;4.97;3.83;;;;;;;21.69;44.43;101862.16;6005330;23;20008;-77
2021/05/30 15:16:30;;;;;;;4.32;3.30;;;;;;;21.70;44.87;101850.16;5980549;23;20143;-76
2021/05/30 15:18:55;;;;;;;5.05;3.40;;;;;;;21.67;44.85;101864.28;6003980;23;20008;-78
2021/05/30 15:21:22;;;;;;;4.18;3.70;;;;;;;21.77;44.27;101855.56;6005409;23;20106;-77
2021/05/30 15:23:48;;;;;;;4.88;3.83;;;;;;;22.13;43.87;101857.56;5957503;23;20008;-76
2021/05/30 15:26:13;;;;;;;3.65;3.35;;;;;;;22.00;44.40;101851.38;5980546;23;20017;-77
2021/05/30 15:28:39;;;;;;;4.97;4.05;;;;;;;21.74;44.49;101847.81;5980253;23;20032;-76
2021/05/30 15:31:04;;;;;;;5.05;4.03;;;;;;;21.62;44.79;101846.84;5980493;23;20087;-78
2021/05/30 15:33:30;;;;;;;4.30;3.90;;;;;;;21.50;45.22;101842.09;5980662;23;20031;-77
2021/05/30 15:36:06;;;;;;;5.03;4.00;;;;;;;21.44;45.88;101845.72;5980599;23;20015;-76
2021/05/30 15:38:33;;;;;;;5.32;4.38;;;;;;;21.40;45.60;101841.75;5979450;23;20011;-74
2021/05/30 15:40:59;;;;;;;4.82;3.88;;;;;;;21.42;45.57;101842.38;5980490;23;20749;-74
2021/05/30 15:43:25;;;;;;;4.20;3.80;;;;;;;21.47;45.36;101847.19;5956558;23;20449;-74
2021/05/30 15:45:51;;;;;;;6.10;4.32;;;;;;;21.48;46.05;101840.63;5980238;23;20011;-75
2021/05/30 15:48:17;;;;;;;5.32;4.43;;;;;;;21.42;46.17;101830.59;5979879;23;20000;-76
2021/05/30 15:50:42;;;;;;;5.90;3.95;;;;;;;21.41;45.85;101835.22;5982470;23;20012;-78
2021/05/30 15:53:08;;;;;;;5.88;4.95;;;;;;;21.29;45.84;101823.28;6005722;23;20095;-79
2021/05/30 15:55:33;;;;;;;11.35;4.45;;;;;;;21.42;45.81;101836.91;5982494;23;20011;-77
2021/05/30 15:57:59;;;;;;;6.57;4.50;;;;;;;21.59;46.29;101836.34;5979832;23;20052;-78
2021/05/30 16:00:24;;;;;;;7.47;6.32;;;;;;;21.73;45.56;101835.19;5980956;23;20060;-78
2021/05/30 16:02:50;;;;;;;11.85;6.03;;;;;;;21.74;45.51;101829.47;6005776;23;20034;-77
2021/05/30 16:05:15;;;;;;;7.20;6.35;;;;;;;21.82;44.91;101833.00;5980935;23;20014;-76
2021/05/30 16:07:41;;;;;;;4.68;3.50;;;;;;;22.00;43.79;101826.72;5957024;23;20015;-79
2021/05/30 16:10:08;;;;;;;5.05;3.97;;;;;;;22.26;43.07;101822.91;5959529;23;20083;-84
2021/05/30 17:11:42;;;;;;;4.82;4.28;;;;;;;23.91;39.12;101767.50;6037314;23;20091;-77
2021/05/30 17:14:12;;;;;;;6.15;4.05;;;;;;;24.18;37.71;101797.19;6017578;23;20074;-80
2021/05/30 17:16:37;;;;;;;4.70;4.13;;;;;;;23.49;39.15;101775.81;6018599;23;20004;-85
2021/05/30 17:19:03;;;;;;;6.35;4.10;;;;;;;22.92;40.58;101772.72;5988745;23;20010;-85
2021/05/30 18:03:41;;;;;;;7.38;4.45;;;;;;;20.96;47.05;101760.63;6039406;23;20023;-78
2021/05/30 21:19:49;;;;;;;10.68;7.40;;;;;;;16.30;65.04;101707.44;6071212;23;20073;-80
